Pagrindinis puslapis
METAR-TAF:

METAR-TAF

Oro uostai :

Panama, Panama

platuma: 08-59N, ilguma: 079-31W, Aukštis: 13 m

Dabartinis oras

Ataskaita buvo paskelbta 1 valandą ir 15 minutes, ne 22:00 UTC
Vėjas 13 kt iš Šiaurės
Temperatūra 31°C
Drėgmė 55%
Slėgis 1010 hPa
Matomumas 10 km arba daugiau
Mažai debesys ne aukštis 2000 ft

METAR: MPMG 212200Z 35013KT 9999 FEW020 31/21 Q1010 NOSIG

Laikas: 18:15 (23:15 UTC)

Prognozė

Ataskaita buvo paskelbta 6 valandos ir 15 minutes, ne 17:00 UTC
Prognozė galioja nuo 21 metu 18 UTC su 22 metu 06 UTC
Vėjas 9 kt iš Šiaurės
Matomumas 10 km arba daugiau
Išsisklaidę debesys ne aukštis 1800 ft
Laikinai
nuo 21 metu 19 UTC su 21 metu 21 UTC
Vėjas 17 kt iš Šiaurės
Laikinai
nuo 22 metu 03 UTC su 22 metu 05 UTC
Matomumas 10 km arba daugiau
nėra debesų žemiau 1500 m ir nėra kamuolinių lietaus debesų

TAF: MPMG 211700Z 2118/2206 35009KT 9999 SCT018 TEMPO 2119/2121 01017KT TEMPO 2203/2205 CAVOK

Orai ataskaitas ir orų prognozės (METAR, TAF).

turimą stotys yra geltonos ir raudonos taškus žemėlapyje.

Perkelti pele per norėdami pamatyti stoties vardą.

Tada spustelėkite, norėdami matyti oro stebėjimo ir prognozės.

Norėdami pakeisti žemėlapį: spustelėkite ant žalios mygtukų su juodo kryžiaus žemyn,; žalią mygtuką su brūkšneliu, jei norite nutolinti; arba žalių rodyklių gretimoms žemėlapius.


METAR-TAF: